Time;durP1;ratioP1;P1;durP2;ratioP2;P2;SDS_P1;SDS_P2;PMS_P1;PMS_P2;Temp;Humidity;BMP_temperature;BMP_pressure;BME280_temperature;BME280_humidity;BME280_pressure;Samples;Min_cycle;Max_cycle;Signal;HPM_P1;HPM_P2
2023/01/31 00:01:05;;;;;;;9.47;6.30;;;;;;;;;;5100720;28;20461;-68
2023/01/31 00:03:33;;;;;;;8.87;6.40;;;;;;;;;;5100755;28;20474;-69
2023/01/31 00:06:11;;;;;;;9.40;6.77;;;;;;;;;;5100911;28;20531;-69
2023/01/31 00:08:40;;;;;;;9.97;7.43;;;;;;;;;;5100852;28;20490;-69
2023/01/31 00:11:09;;;;;;;9.87;5.87;;;;;;;;;;5100669;28;20440;-69
2023/01/31 00:13:38;;;;;;;9.67;6.80;;;;;;;;;;5100424;28;21069;-70
2023/01/31 00:16:06;;;;;;;9.90;6.20;;;;;;;;;;5100837;28;20440;-68
2023/01/31 00:18:34;;;;;;;7.93;6.30;;;;;;;;;;5100212;28;20449;-69
2023/01/31 00:21:06;;;;;;;8.30;6.43;;;;;;;;;;5100371;28;20471;-69
2023/01/31 00:23:34;;;;;;;10.37;6.43;;;;;;;;;;5100317;28;21024;-70
2023/01/31 00:26:11;;;;;;;8.17;5.80;;;;;;;;;;5100333;28;20958;-69
2023/01/31 00:28:40;;;;;;;10.90;6.70;;;;;;;;;;5100133;28;20515;-70
2023/01/31 00:31:08;;;;;;;9.27;6.07;;;;;;;;;;5099667;28;20477;-70
2023/01/31 00:33:36;;;;;;;8.50;6.37;;;;;;;;;;5099897;28;20499;-69
2023/01/31 00:36:05;;;;;;;7.80;6.20;;;;;;;;;;5099812;28;20525;-69
2023/01/31 00:38:33;;;;;;;8.67;5.67;;;;;;;;;;5100378;28;20454;-69
2023/01/31 00:41:02;;;;;;;7.90;5.33;;;;;;;;;;5100283;28;20446;-70
2023/01/31 00:43:32;;;;;;;7.53;5.30;;;;;;;;;;5100259;28;20464;-69
2023/01/31 00:46:01;;;;;;;9.10;5.60;;;;;;;;;;5100270;28;20447;-69
2023/01/31 00:48:30;;;;;;;6.87;5.53;;;;;;;;;;5099585;28;20487;-69
2023/01/31 00:50:58;;;;;;;6.63;4.40;;;;;;;;;;5099984;28;20439;-69
2023/01/31 00:53:26;;;;;;;7.40;5.03;;;;;;;;;;5099845;28;20471;-69
2023/01/31 00:55:54;;;;;;;6.33;4.67;;;;;;;;;;5099711;28;20813;-70
2023/01/31 00:58:22;;;;;;;5.63;4.50;;;;;;;;;;5099777;28;20869;-69
2023/01/31 01:00:52;;;;;;;6.20;4.37;;;;;;;;;;5099596;28;20511;-69
2023/01/31 01:03:20;;;;;;;4.73;3.83;;;;;;;;;;5099811;28;20554;-69
2023/01/31 01:05:48;;;;;;;5.10;4.23;;;;;;;;;;5099463;28;20444;-70
2023/01/31 01:08:16;;;;;;;4.63;3.60;;;;;;;;;;5099467;28;20479;-70
2023/01/31 01:10:44;;;;;;;5.20;3.47;;;;;;;;;;5099471;28;20483;-69
2023/01/31 01:13:12;;;;;;;5.00;3.63;;;;;;;;;;5099435;28;20475;-69
2023/01/31 01:15:40;;;;;;;4.67;3.57;;;;;;;;;;5099372;28;20994;-70
2023/01/31 01:18:09;;;;;;;4.57;3.50;;;;;;;;;;5099510;28;20526;-70
2023/01/31 01:20:37;;;;;;;4.73;3.37;;;;;;;;;;5093751;28;20507;-70
2023/01/31 01:23:05;;;;;;;5.37;3.63;;;;;;;;;;5095757;28;20501;-69
2023/01/31 01:25:41;;;;;;;3.57;3.27;;;;;;;;;;5097844;28;21179;-69
2023/01/31 01:28:09;;;;;;;2.63;2.27;;;;;;;;;;5098803;28;21060;-69
2023/01/31 01:30:37;;;;;;;3.57;2.83;;;;;;;;;;5098581;28;20748;-69
2023/01/31 01:33:05;;;;;;;2.90;2.60;;;;;;;;;;5099038;28;21001;-69
2023/01/31 01:35:35;;;;;;;3.23;2.23;;;;;;;;;;5098481;28;20970;-69
2023/01/31 01:38:03;;;;;;;2.93;2.40;;;;;;;;;;5099077;28;20477;-70
2023/01/31 01:40:35;;;;;;;3.63;2.50;;;;;;;;;;5098682;28;20872;-69
2023/01/31 01:43:03;;;;;;;2.63;2.40;;;;;;;;;;5097859;28;20495;-70
2023/01/31 01:45:31;;;;;;;3.47;2.57;;;;;;;;;;5098412;28;20439;-70
2023/01/31 01:48:01;;;;;;;2.77;2.30;;;;;;;;;;5098663;28;20233;-70
2023/01/31 01:50:31;;;;;;;3.07;2.03;;;;;;;;;;5098295;28;20841;-70
2023/01/31 01:53:10;;;;;;;3.27;2.67;;;;;;;;;;5097141;28;20278;-70
2023/01/31 01:55:40;;;;;;;3.00;2.67;;;;;;;;;;5097002;28;20451;-70
2023/01/31 01:58:10;;;;;;;3.60;2.33;;;;;;;;;;5096972;28;20205;-70
2023/01/31 02:00:38;;;;;;;2.03;1.93;;;;;;;;;;5096713;28;20197;-70
2023/01/31 02:03:07;;;;;;;2.47;2.27;;;;;;;;;;5096739;28;20460;-69
2023/01/31 02:05:38;;;;;;;3.83;2.50;;;;;;;;;;5096449;28;20539;-70
2023/01/31 02:08:09;;;;;;;2.67;2.23;;;;;;;;;;5097952;28;20217;-70
2023/01/31 02:10:40;;;;;;;3.90;2.67;;;;;;;;;;5098640;28;20541;-70
2023/01/31 02:13:08;;;;;;;3.03;2.63;;;;;;;;;;5098466;28;20229;-70
2023/01/31 02:15:37;;;;;;;2.97;2.27;;;;;;;;;;5098661;28;20487;-70
2023/01/31 02:18:05;;;;;;;3.27;2.50;;;;;;;;;;5098453;28;20440;-70
2023/01/31 02:20:51;;;;;;;4.63;2.37;;;;;;;;;;5097732;28;20436;-69
2023/01/31 02:23:28;;;;;;;3.17;2.70;;;;;;;;;;5097958;28;20463;-69
2023/01/31 02:26:15;;;;;;;3.93;2.83;;;;;;;;;;5098485;28;20443;-69
2023/01/31 02:28:54;;;;;;;3.07;2.40;;;;;;;;;;5097926;28;20439;-70
2023/01/31 02:31:41;;;;;;;2.87;2.53;;;;;;;;;;5098347;28;20236;-70
2023/01/31 02:34:14;;;;;;;3.40;2.33;;;;;;;;;;5097604;28;20479;-70
2023/01/31 02:36:52;;;;;;;3.87;3.03;;;;;;;;;;5098285;28;20447;-69
2023/01/31 02:39:25;;;;;;;4.30;3.00;;;;;;;;;;5098111;28;20919;-70
2023/01/31 02:41:57;;;;;;;4.83;3.40;;;;;;;;;;5098323;28;20478;-70
2023/01/31 02:47:19;;;;;;;3.50;2.83;;;;;;;;;;5097944;28;20805;-70
2023/01/31 02:49:53;;;;;;;4.97;3.20;;;;;;;;;;5097522;28;20567;-70
2023/01/31 02:52:24;;;;;;;7.07;3.90;;;;;;;;;;5097923;28;20440;-70
2023/01/31 02:57:42;;;;;;;4.73;3.70;;;;;;;;;;5097993;28;20439;-70
2023/01/31 03:00:10;;;;;;;6.00;3.63;;;;;;;;;;5097815;28;20468;-69
2023/01/31 03:02:39;;;;;;;4.20;3.77;;;;;;;;;;5097565;28;20439;-70
2023/01/31 03:05:11;;;;;;;11.40;4.20;;;;;;;;;;5097324;28;20961;-70
2023/01/31 03:07:42;;;;;;;6.17;4.37;;;;;;;;;;5097856;28;20519;-70
2023/01/31 03:10:16;;;;;;;6.53;3.80;;;;;;;;;;5097512;28;20510;-69
2023/01/31 03:12:49;;;;;;;7.00;4.37;;;;;;;;;;5097589;28;20490;-70
2023/01/31 03:17:30;;;;;;;6.53;4.90;;;;;;;;;;5097897;28;20475;-69
2023/01/31 03:18:22;;;;;;;5.67;3.83;;;;;;;;;;5097466;28;20446;-70
2023/01/31 03:20:53;;;;;;;5.73;4.07;;;;;;;;;;5097656;28;20496;-69
2023/01/31 03:23:22;;;;;;;6.97;4.50;;;;;;;;;;5097363;28;20470;-69
2023/01/31 03:25:50;;;;;;;6.23;4.20;;;;;;;;;;5097738;28;20444;-70
2023/01/31 03:28:20;;;;;;;4.80;3.53;;;;;;;;;;5097366;28;20443;-71
2023/01/31 03:30:50;;;;;;;6.50;4.77;;;;;;;;;;5097334;28;20490;-71
2023/01/31 03:33:21;;;;;;;6.60;4.03;;;;;;;;;;5097267;28;20469;-70
2023/01/31 03:35:52;;;;;;;6.77;4.20;;;;;;;;;;5097155;28;20471;-69
2023/01/31 03:38:24;;;;;;;4.33;3.90;;;;;;;;;;5097620;28;20467;-70
2023/01/31 03:40:55;;;;;;;6.37;4.57;;;;;;;;;;5097333;28;20462;-70
2023/01/31 03:43:27;;;;;;;6.80;4.30;;;;;;;;;;5097306;28;20821;-70
2023/01/31 03:45:57;;;;;;;7.73;4.50;;;;;;;;;;5097258;28;20470;-71
2023/01/31 03:48:27;;;;;;;6.43;4.37;;;;;;;;;;5097266;28;20439;-70
2023/01/31 03:50:57;;;;;;;8.53;4.20;;;;;;;;;;5097326;28;20483;-71
2023/01/31 03:53:29;;;;;;;4.80;3.87;;;;;;;;;;5097312;28;20491;-70
2023/01/31 03:56:00;;;;;;;5.90;4.47;;;;;;;;;;5097506;28;20561;-70
2023/01/31 03:58:30;;;;;;;6.27;4.57;;;;;;;;;;5097811;28;20447;-69
2023/01/31 04:01:01;;;;;;;6.87;4.40;;;;;;;;;;5097392;28;20440;-70
2023/01/31 04:03:31;;;;;;;6.30;4.33;;;;;;;;;;5097052;28;20459;-70
2023/01/31 04:05:59;;;;;;;9.13;4.80;;;;;;;;;;5097057;28;20469;-70
2023/01/31 04:08:31;;;;;;;4.83;4.00;;;;;;;;;;5100481;28;20448;-69
2023/01/31 04:10:59;;;;;;;5.90;3.77;;;;;;;;;;5100884;28;20479;-70
2023/01/31 04:13:27;;;;;;;6.47;4.00;;;;;;;;;;5100750;28;20225;-70
2023/01/31 04:15:55;;;;;;;8.47;4.30;;;;;;;;;;5100584;28;20444;-70
2023/01/31 04:18:23;;;;;;;8.07;5.20;;;;;;;;;;5100115;28;20440;-70
2023/01/31 04:20:51;;;;;;;6.93;4.30;;;;;;;;;;5100518;28;20447;-70
2023/01/31 04:23:19;;;;;;;4.80;3.90;;;;;;;;;;5100334;28;20490;-70
2023/01/31 04:25:48;;;;;;;5.90;4.57;;;;;;;;;;5100508;28;20802;-70
2023/01/31 04:28:17;;;;;;;5.57;4.03;;;;;;;;;;5100534;28;20443;-70
2023/01/31 04:30:44;;;;;;;7.37;4.13;;;;;;;;;;5100592;28;20487;-70
2023/01/31 04:33:12;;;;;;;5.80;4.67;;;;;;;;;;5099901;28;20463;-70
2023/01/31 04:35:40;;;;;;;5.17;4.37;;;;;;;;;;5099927;28;20514;-70
2023/01/31 04:38:08;;;;;;;6.13;4.13;;;;;;;;;;5100319;28;20530;-69
2023/01/31 04:40:36;;;;;;;10.37;5.40;;;;;;;;;;5100404;28;20523;-70
2023/01/31 04:43:06;;;;;;;5.93;4.30;;;;;;;;;;5096486;28;20470;-70
2023/01/31 04:45:34;;;;;;;5.97;4.53;;;;;;;;;;5100380;28;20942;-69
2023/01/31 04:48:03;;;;;;;5.07;4.57;;;;;;;;;;5099598;28;20472;-70
2023/01/31 04:50:31;;;;;;;5.27;4.40;;;;;;;;;;5099515;28;20479;-69
2023/01/31 04:52:59;;;;;;;6.50;4.67;;;;;;;;;;5099673;28;20456;-70
2023/01/31 04:55:27;;;;;;;8.80;4.83;;;;;;;;;;5099953;28;20440;-70
2023/01/31 04:57:55;;;;;;;6.27;4.60;;;;;;;;;;5099235;28;20443;-70
2023/01/31 05:00:25;;;;;;;7.37;4.47;;;;;;;;;;5100046;28;20466;-69
2023/01/31 05:02:53;;;;;;;9.33;4.27;;;;;;;;;;5098404;28;20243;-69
2023/01/31 05:05:21;;;;;;;6.93;4.57;;;;;;;;;;5099308;28;20435;-69
2023/01/31 05:07:49;;;;;;;5.57;4.40;;;;;;;;;;5099484;28;20492;-70
2023/01/31 05:10:18;;;;;;;5.07;4.40;;;;;;;;;;5099036;28;20930;-70
2023/01/31 05:12:46;;;;;;;6.20;4.30;;;;;;;;;;5099403;28;20463;-70
2023/01/31 05:15:14;;;;;;;6.47;4.57;;;;;;;;;;5099351;28;20224;-69
2023/01/31 05:17:44;;;;;;;5.47;4.07;;;;;;;;;;5099321;28;20206;-69
2023/01/31 05:20:12;;;;;;;6.53;4.30;;;;;;;;;;5099101;28;20482;-69
2023/01/31 05:22:40;;;;;;;7.47;4.23;;;;;;;;;;5099277;28;20961;-70
2023/01/31 05:25:08;;;;;;;6.37;4.20;;;;;;;;;;5099222;28;20513;-70
2023/01/31 05:27:36;;;;;;;7.07;4.77;;;;;;;;;;5099507;28;20209;-69
2023/01/31 05:30:05;;;;;;;10.80;4.63;;;;;;;;;;5099356;28;20447;-70
2023/01/31 05:32:33;;;;;;;5.47;4.60;;;;;;;;;;5083259;28;20994;-69
2023/01/31 05:35:03;;;;;;;5.47;4.07;;;;;;;;;;5097247;28;20503;-70
2023/01/31 05:37:31;;;;;;;5.40;3.77;;;;;;;;;;5098313;28;20447;-70
2023/01/31 05:39:59;;;;;;;7.30;4.17;;;;;;;;;;5098571;28;20468;-69
2023/01/31 05:42:27;;;;;;;5.97;3.80;;;;;;;;;;5098996;28;20440;-70
2023/01/31 05:44:55;;;;;;;6.03;4.13;;;;;;;;;;5099091;28;20444;-69
2023/01/31 05:47:23;;;;;;;5.77;4.47;;;;;;;;;;5098491;28;20474;-70
2023/01/31 05:49:51;;;;;;;5.17;3.87;;;;;;;;;;5098196;28;20440;-69
2023/01/31 05:52:21;;;;;;;6.23;4.37;;;;;;;;;;5098207;28;20572;-70
2023/01/31 05:54:49;;;;;;;7.47;4.40;;;;;;;;;;5098676;28;20529;-70
2023/01/31 05:57:17;;;;;;;9.83;4.60;;;;;;;;;;5098360;28;21022;-70
2023/01/31 05:59:45;;;;;;;5.77;4.63;;;;;;;;;;5098581;28;20938;-70
2023/01/31 06:02:13;;;;;;;7.50;4.93;;;;;;;;;;5097312;28;20443;-70
2023/01/31 06:04:41;;;;;;;5.87;4.87;;;;;;;;;;5096272;28;20460;-70
2023/01/31 06:07:09;;;;;;;9.33;4.50;;;;;;;;;;5096813;28;20240;-70
2023/01/31 06:09:39;;;;;;;4.77;4.27;;;;;;;;;;5096417;28;20958;-70
2023/01/31 06:12:11;;;;;;;6.77;4.07;;;;;;;;;;5096446;28;20258;-70
2023/01/31 06:14:39;;;;;;;6.70;4.60;;;;;;;;;;5096589;28;20460;-70
2023/01/31 06:17:08;;;;;;;8.07;4.47;;;;;;;;;;5097431;28;20444;-70
2023/01/31 06:19:37;;;;;;;5.97;4.63;;;;;;;;;;5097682;28;20814;-70
2023/01/31 06:22:05;;;;;;;8.33;4.63;;;;;;;;;;5098149;28;20439;-69
2023/01/31 06:24:33;;;;;;;7.83;4.53;;;;;;;;;;5098016;28;20499;-70
2023/01/31 06:27:03;;;;;;;6.97;4.27;;;;;;;;;;5098068;28;20214;-69
2023/01/31 06:29:31;;;;;;;6.13;4.10;;;;;;;;;;5097577;28;20444;-70
2023/01/31 06:31:59;;;;;;;6.47;4.27;;;;;;;;;;5097971;28;20487;-70
2023/01/31 06:34:27;;;;;;;5.77;4.23;;;;;;;;;;5097313;28;20482;-69
2023/01/31 06:36:55;;;;;;;6.77;4.20;;;;;;;;;;5098192;28;20530;-70
2023/01/31 06:39:23;;;;;;;6.07;4.00;;;;;;;;;;5098099;28;20443;-69
2023/01/31 06:41:51;;;;;;;7.90;4.40;;;;;;;;;;5097755;28;20459;-70
2023/01/31 06:44:21;;;;;;;4.10;3.67;;;;;;;;;;5097626;28;21026;-70
2023/01/31 06:46:49;;;;;;;9.53;5.23;;;;;;;;;;5097810;28;20942;-69
2023/01/31 06:49:17;;;;;;;5.50;4.60;;;;;;;;;;5097369;28;20467;-70
2023/01/31 06:51:45;;;;;;;7.27;4.63;;;;;;;;;;5097970;28;20479;-70
2023/01/31 06:54:13;;;;;;;5.00;4.00;;;;;;;;;;5097855;28;20459;-69
2023/01/31 06:56:41;;;;;;;5.83;4.80;;;;;;;;;;5098063;28;20443;-70
2023/01/31 06:59:09;;;;;;;8.13;4.27;;;;;;;;;;5097857;28;20524;-69
2023/01/31 07:01:38;;;;;;;6.03;4.50;;;;;;;;;;5097878;28;20454;-70
2023/01/31 07:04:06;;;;;;;6.57;4.40;;;;;;;;;;5097518;28;20455;-70
2023/01/31 07:06:34;;;;;;;8.60;4.53;;;;;;;;;;5097590;28;20979;-69
2023/01/31 07:09:02;;;;;;;5.77;4.00;;;;;;;;;;5097548;28;20751;-69
2023/01/31 07:11:30;;;;;;;6.53;4.17;;;;;;;;;;5097447;28;20723;-69
2023/01/31 07:13:59;;;;;;;6.53;4.43;;;;;;;;;;5097644;28;20221;-70
2023/01/31 07:16:27;;;;;;;6.53;3.83;;;;;;;;;;5097499;28;20210;-70
2023/01/31 07:18:56;;;;;;;4.33;3.87;;;;;;;;;;5097273;28;20217;-70
2023/01/31 07:21:25;;;;;;;5.50;4.37;;;;;;;;;;5097317;28;20659;-70
2023/01/31 07:23:53;;;;;;;6.27;3.93;;;;;;;;;;5097433;28;20244;-69
2023/01/31 07:26:21;;;;;;;4.87;4.00;;;;;;;;;;5097381;28;20209;-70
2023/01/31 07:28:49;;;;;;;7.20;4.30;;;;;;;;;;5097341;28;20812;-70
2023/01/31 07:31:17;;;;;;;7.57;4.17;;;;;;;;;;5097275;28;20467;-70
2023/01/31 07:33:45;;;;;;;8.77;4.47;;;;;;;;;;5096721;28;20463;-70
2023/01/31 07:36:15;;;;;;;8.23;4.37;;;;;;;;;;5097492;28;20523;-70
2023/01/31 07:38:43;;;;;;;6.93;4.30;;;;;;;;;;5097443;28;20454;-69
2023/01/31 07:41:11;;;;;;;4.83;4.33;;;;;;;;;;5098696;28;20451;-69
2023/01/31 07:43:39;;;;;;;8.07;4.27;;;;;;;;;;5101288;28;20491;-70
2023/01/31 07:46:09;;;;;;;9.53;4.60;;;;;;;;;;5101130;28;20205;-69
2023/01/31 07:48:38;;;;;;;6.47;4.00;;;;;;;;;;5101306;28;20448;-70
2023/01/31 07:51:06;;;;;;;5.83;4.20;;;;;;;;;;5101215;28;20210;-70
2023/01/31 07:53:40;;;;;;;6.13;4.40;;;;;;;;;;5100780;28;20522;-70
2023/01/31 07:56:10;;;;;;;6.07;4.20;;;;;;;;;;5101174;28;20449;-69
2023/01/31 07:58:38;;;;;;;7.83;3.77;;;;;;;;;;5100835;28;20259;-69
2023/01/31 08:03:52;;;;;;;6.13;4.00;;;;;;;;;;5100540;28;20225;-70
2023/01/31 08:06:20;;;;;;;5.23;3.80;;;;;;;;;;5101012;28;20838;-70
2023/01/31 08:08:49;;;;;;;6.50;4.30;;;;;;;;;;5100943;28;20443;-71
2023/01/31 08:11:17;;;;;;;12.27;4.20;;;;;;;;;;5100687;28;20237;-70
2023/01/31 08:13:45;;;;;;;5.20;3.67;;;;;;;;;;5100349;28;20487;-70
2023/01/31 08:16:14;;;;;;;6.23;3.80;;;;;;;;;;5100933;28;20211;-69
2023/01/31 08:18:42;;;;;;;5.53;4.63;;;;;;;;;;5100115;28;20217;-70
2023/01/31 08:21:11;;;;;;;7.27;3.87;;;;;;;;;;5100346;28;20739;-69
2023/01/31 08:23:40;;;;;;;7.23;3.93;;;;;;;;;;5100296;28;20222;-70
2023/01/31 08:26:11;;;;;;;6.33;3.70;;;;;;;;;;5100663;28;20205;-69
2023/01/31 08:28:39;;;;;;;7.53;3.70;;;;;;;;;;5100626;28;20209;-70
2023/01/31 08:31:07;;;;;;;12.50;4.50;;;;;;;;;;5100580;28;20282;-70
2023/01/31 08:33:36;;;;;;;4.30;3.70;;;;;;;;;;5100107;28;20229;-70
2023/01/31 08:36:11;;;;;;;7.27;4.23;;;;;;;;;;5099860;28;20287;-70
2023/01/31 08:38:39;;;;;;;4.80;3.87;;;;;;;;;;5100115;28;20686;-70
2023/01/31 08:41:09;;;;;;;6.93;4.10;;;;;;;;;;5100399;28;20217;-70
2023/01/31 08:43:37;;;;;;;4.73;3.90;;;;;;;;;;5100037;28;20213;-69
2023/01/31 08:46:22;;;;;;;7.47;4.20;;;;;;;;;;5100287;28;20260;-70
2023/01/31 08:48:50;;;;;;;4.20;3.60;;;;;;;;;;5099700;28;20585;-70
2023/01/31 08:51:19;;;;;;;6.67;3.40;;;;;;;;;;5099772;28;20213;-70
2023/01/31 08:53:47;;;;;;;6.87;3.73;;;;;;;;;;5099210;28;20230;-70
2023/01/31 08:56:16;;;;;;;6.60;3.43;;;;;;;;;;5099724;28;20467;-69
2023/01/31 08:58:45;;;;;;;5.87;3.50;;;;;;;;;;5099740;28;20506;-70
2023/01/31 09:01:14;;;;;;;5.63;3.90;;;;;;;;;;5099807;28;20634;-70
2023/01/31 09:03:42;;;;;;;8.07;3.87;;;;;;;;;;5099500;28;20238;-70
2023/01/31 09:06:12;;;;;;;7.17;3.63;;;;;;;;;;5099627;28;20571;-70
2023/01/31 09:08:40;;;;;;;4.83;3.17;;;;;;;;;;5099859;28;20209;-70
2023/01/31 09:11:09;;;;;;;5.07;3.60;;;;;;;;;;5099902;28;20289;-69
2023/01/31 09:13:38;;;;;;;8.70;3.70;;;;;;;;;;5099308;28;20890;-70
2023/01/31 09:16:07;;;;;;;5.67;3.67;;;;;;;;;;5099573;28;20208;-70
2023/01/31 09:18:36;;;;;;;5.90;3.53;;;;;;;;;;5098903;28;20202;-70
2023/01/31 09:21:05;;;;;;;5.47;3.73;;;;;;;;;;5099315;28;20679;-70
2023/01/31 09:23:33;;;;;;;6.90;3.53;;;;;;;;;;5099392;28;20274;-70
2023/01/31 09:26:01;;;;;;;12.13;5.60;;;;;;;;;;5099280;28;20236;-70
2023/01/31 09:28:29;;;;;;;5.53;3.50;;;;;;;;;;5099369;28;20201;-70
2023/01/31 09:31:03;;;;;;;8.20;3.47;;;;;;;;;;5099268;28;20206;-69
2023/01/31 09:33:33;;;;;;;3.67;3.10;;;;;;;;;;5098654;28;20699;-70
2023/01/31 09:36:01;;;;;;;5.17;4.00;;;;;;;;;;5082534;28;20313;-70
2023/01/31 09:38:29;;;;;;;3.67;3.33;;;;;;;;;;5098269;28;20243;-70
2023/01/31 09:40:58;;;;;;;4.90;3.70;;;;;;;;;;5098843;28;20201;-70
2023/01/31 09:43:28;;;;;;;4.53;3.20;;;;;;;;;;5098326;28;20224;-70
2023/01/31 09:45:59;;;;;;;6.60;4.33;;;;;;;;;;5098773;28;20206;-70
2023/01/31 09:48:31;;;;;;;6.53;4.30;;;;;;;;;;5098739;28;20212;-70
2023/01/31 09:50:59;;;;;;;6.00;3.47;;;;;;;;;;5098770;28;20206;-70
2023/01/31 09:53:29;;;;;;;5.50;3.90;;;;;;;;;;5098431;28;20769;-70
2023/01/31 09:56:03;;;;;;;8.73;3.90;;;;;;;;;;5098869;28;20289;-70
2023/01/31 09:58:35;;;;;;;4.77;3.93;;;;;;;;;;5098509;28;20232;-70
2023/01/31 10:01:09;;;;;;;4.17;3.77;;;;;;;;;;5098653;28;20206;-70
2023/01/31 10:03:58;;;;;;;6.63;4.27;;;;;;;;;;5098069;28;20231;-70
2023/01/31 10:06:31;;;;;;;6.23;4.33;;;;;;;;;;5062731;28;20250;-70
2023/01/31 10:09:03;;;;;;;4.90;4.30;;;;;;;;;;5096738;28;20209;-70
2023/01/31 10:11:34;;;;;;;7.77;4.53;;;;;;;;;;5096659;28;20216;-70
2023/01/31 10:14:09;;;;;;;5.47;3.70;;;;;;;;;;5096371;28;20851;-70
2023/01/31 10:16:39;;;;;;;7.20;4.30;;;;;;;;;;5096407;28;20209;-70
2023/01/31 10:19:10;;;;;;;7.33;4.57;;;;;;;;;;5096323;28;20288;-70
2023/01/31 10:21:42;;;;;;;6.27;4.10;;;;;;;;;;5098027;28;20237;-71
2023/01/31 10:24:13;;;;;;;6.97;4.20;;;;;;;;;;5098443;28;20260;-71
2023/01/31 10:26:44;;;;;;;4.77;4.00;;;;;;;;;;5098160;28;20210;-72
2023/01/31 10:29:16;;;;;;;4.47;3.83;;;;;;;;;;5098429;28;20217;-72
2023/01/31 10:31:46;;;;;;;4.70;3.60;;;;;;;;;;5098062;28;20205;-72
2023/01/31 10:34:17;;;;;;;5.20;4.13;;;;;;;;;;5097641;28;20295;-72
2023/01/31 10:36:49;;;;;;;4.77;3.63;;;;;;;;;;5097930;28;20209;-72
2023/01/31 10:39:20;;;;;;;6.30;3.77;;;;;;;;;;5097972;28;20288;-72
2023/01/31 10:41:58;;;;;;;4.20;3.67;;;;;;;;;;5098175;28;20215;-73
2023/01/31 10:44:30;;;;;;;4.50;3.80;;;;;;;;;;5097799;28;20248;-71
2023/01/31 10:46:59;;;;;;;5.00;4.00;;;;;;;;;;5097977;28;20304;-72
2023/01/31 10:49:28;;;;;;;9.20;3.90;;;;;;;;;;5097622;28;20205;-72
2023/01/31 10:52:07;;;;;;;6.03;3.60;;;;;;;;;;5098078;28;20248;-71
2023/01/31 10:54:41;;;;;;;8.40;3.80;;;;;;;;;;5097585;28;21010;-70
2023/01/31 10:57:09;;;;;;;8.33;3.83;;;;;;;;;;5097929;28;20209;-70
2023/01/31 10:59:38;;;;;;;5.97;3.77;;;;;;;;;;5097985;28;20237;-70
2023/01/31 11:02:17;;;;;;;7.03;3.97;;;;;;;;;;5097724;28;20201;-70
2023/01/31 11:04:45;;;;;;;7.73;4.67;;;;;;;;;;5097345;28;20440;-69
2023/01/31 11:07:14;;;;;;;8.87;4.40;;;;;;;;;;5097933;28;20454;-70
2023/01/31 11:09:45;;;;;;;8.00;4.63;;;;;;;;;;5097877;28;20443;-70
2023/01/31 11:12:13;;;;;;;5.93;4.57;;;;;;;;;;5097617;28;20475;-69
2023/01/31 11:14:41;;;;;;;6.53;4.97;;;;;;;;;;5097398;28;20488;-70
2023/01/31 11:17:12;;;;;;;6.37;4.10;;;;;;;;;;5100817;28;20519;-70
2023/01/31 11:19:44;;;;;;;6.40;4.90;;;;;;;;;;5101237;28;20572;-70
2023/01/31 11:22:20;;;;;;;5.00;3.93;;;;;;;;;;5101918;28;20439;-70
2023/01/31 11:24:49;;;;;;;6.07;4.63;;;;;;;;;;5101491;28;20946;-70
2023/01/31 11:27:24;;;;;;;7.00;4.37;;;;;;;;;;5101760;28;20470;-70
2023/01/31 11:29:53;;;;;;;10.43;4.80;;;;;;;;;;5101340;28;20541;-70
2023/01/31 11:32:22;;;;;;;7.27;3.83;;;;;;;;;;5101301;28;20446;-70
2023/01/31 11:34:58;;;;;;;6.33;4.83;;;;;;;;;;5100751;28;20755;-70
2023/01/31 11:37:28;;;;;;;6.07;4.60;;;;;;;;;;5101267;28;20688;-70
2023/01/31 11:39:56;;;;;;;5.30;4.50;;;;;;;;;;5101204;28;20677;-70
2023/01/31 11:42:25;;;;;;;5.73;4.40;;;;;;;;;;5101133;28;20463;-70
2023/01/31 11:44:54;;;;;;;6.67;4.43;;;;;;;;;;5088269;28;20198;-70
2023/01/31 11:47:25;;;;;;;8.57;4.50;;;;;;;;;;5101002;28;20258;-70
2023/01/31 11:49:54;;;;;;;8.67;4.87;;;;;;;;;;5100761;28;20240;-71
2023/01/31 11:52:23;;;;;;;8.67;4.80;;;;;;;;;;5101060;28;20444;-70
2023/01/31 11:54:55;;;;;;;7.13;4.20;;;;;;;;;;5101339;28;20287;-70
2023/01/31 11:57:23;;;;;;;6.33;3.97;;;;;;;;;;5100920;28;20737;-70
2023/01/31 11:59:53;;;;;;;7.57;4.67;;;;;;;;;;5101120;28;20254;-71
2023/01/31 12:02:25;;;;;;;6.50;3.83;;;;;;;;;;5100639;28;20237;-70
2023/01/31 12:04:53;;;;;;;8.93;4.40;;;;;;;;;;5100849;28;20206;-70
2023/01/31 12:07:22;;;;;;;6.83;4.60;;;;;;;;;;5101145;28;20206;-70
2023/01/31 12:09:52;;;;;;;7.87;4.53;;;;;;;;;;5101150;28;20291;-70
2023/01/31 12:12:25;;;;;;;4.53;4.00;;;;;;;;;;5100919;28;20230;-70
2023/01/31 12:14:55;;;;;;;5.93;3.83;;;;;;;;;;5100519;28;20228;-70
2023/01/31 12:17:23;;;;;;;4.63;3.67;;;;;;;;;;5100715;28;20717;-71
2023/01/31 12:19:58;;;;;;;5.67;3.63;;;;;;;;;;5100209;28;20203;-70
2023/01/31 12:22:30;;;;;;;5.87;4.33;;;;;;;;;;5100709;28;20212;-70
2023/01/31 12:25:04;;;;;;;7.87;4.63;;;;;;;;;;5100622;28;20210;-71
2023/01/31 12:27:40;;;;;;;10.30;5.30;;;;;;;;;;5099438;28;20206;-70
2023/01/31 12:30:24;;;;;;;8.87;5.40;;;;;;;;;;5100333;28;20296;-70
2023/01/31 12:33:08;;;;;;;12.30;5.37;;;;;;;;;;5099839;28;20777;-71
2023/01/31 12:35:42;;;;;;;7.43;4.07;;;;;;;;;;5099982;28;20237;-71
2023/01/31 12:38:16;;;;;;;5.57;3.70;;;;;;;;;;5100363;28;20635;-71
2023/01/31 12:40:49;;;;;;;5.50;3.83;;;;;;;;;;5100258;28;20210;-71
2023/01/31 12:43:25;;;;;;;5.23;3.20;;;;;;;;;;5100170;28;20225;-70
2023/01/31 12:46:01;;;;;;;4.53;3.90;;;;;;;;;;5100052;28;20224;-71
2023/01/31 12:48:37;;;;;;;2.87;2.67;;;;;;;;;;5099823;28;20672;-71
2023/01/31 12:51:10;;;;;;;5.23;2.83;;;;;;;;;;5099856;28;20333;-70
2023/01/31 12:53:45;;;;;;;5.33;3.10;;;;;;;;;;5099933;28;20756;-70
2023/01/31 12:56:21;;;;;;;5.20;2.73;;;;;;;;;;5099676;28;20233;-70
2023/01/31 12:58:52;;;;;;;3.33;2.70;;;;;;;;;;5099748;28;20213;-70
2023/01/31 13:01:45;;;;;;;3.47;2.77;;;;;;;;;;5100222;28;20220;-71
2023/01/31 13:04:20;;;;;;;5.30;2.90;;;;;;;;;;5099191;28;20225;-71
2023/01/31 13:06:51;;;;;;;2.63;2.40;;;;;;;;;;5099691;28;20209;-70
2023/01/31 13:09:20;;;;;;;5.20;2.73;;;;;;;;;;5099845;28;20255;-70
2023/01/31 13:11:52;;;;;;;3.53;2.53;;;;;;;;;;5099704;28;20237;-71
2023/01/31 13:14:21;;;;;;;2.93;2.43;;;;;;;;;;5099663;28;20265;-71
2023/01/31 13:16:52;;;;;;;3.20;2.50;;;;;;;;;;5099357;28;20595;-71
2023/01/31 13:19:24;;;;;;;3.13;2.50;;;;;;;;;;5098902;28;20734;-71
2023/01/31 13:21:54;;;;;;;4.70;2.67;;;;;;;;;;5099197;28;20288;-71
2023/01/31 13:24:24;;;;;;;4.60;2.60;;;;;;;;;;5099263;28;20715;-70
2023/01/31 13:26:56;;;;;;;2.50;2.30;;;;;;;;;;5099526;28;20212;-71
2023/01/31 13:29:27;;;;;;;4.67;2.40;;;;;;;;;;5099474;28;20292;-70
2023/01/31 13:31:58;;;;;;;7.10;3.17;;;;;;;;;;5099082;28;20292;-70
2023/01/31 13:34:29;;;;;;;3.47;3.17;;;;;;;;;;5098515;28;20260;-71
2023/01/31 13:36:59;;;;;;;5.33;3.07;;;;;;;;;;5092900;28;20233;-71
2023/01/31 13:39:30;;;;;;;5.90;3.43;;;;;;;;;;5088780;28;20211;-71
2023/01/31 13:41:59;;;;;;;3.53;2.70;;;;;;;;;;5097708;28;20208;-70
2023/01/31 13:44:27;;;;;;;3.13;2.70;;;;;;;;;;5098988;28;20660;-70
2023/01/31 13:46:58;;;;;;;2.77;2.57;;;;;;;;;;5098713;28;20201;-70
2023/01/31 13:49:28;;;;;;;3.03;2.73;;;;;;;;;;5098489;28;20209;-71
2023/01/31 13:51:57;;;;;;;2.93;2.40;;;;;;;;;;5098953;28;20292;-71
2023/01/31 13:54:27;;;;;;;2.53;2.33;;;;;;;;;;5098478;28;20735;-71
2023/01/31 13:56:57;;;;;;;3.47;2.70;;;;;;;;;;5098942;28;20260;-70
2023/01/31 13:59:28;;;;;;;4.30;3.27;;;;;;;;;;5098455;28;20288;-70
2023/01/31 14:01:58;;;;;;;3.77;3.37;;;;;;;;;;5097938;28;20292;-70
2023/01/31 14:04:28;;;;;;;4.70;2.87;;;;;;;;;;5096448;28;20235;-71
2023/01/31 14:07:20;;;;;;;4.87;3.43;;;;;;;;;;5096903;28;20205;-71
2023/01/31 14:10:07;;;;;;;3.03;2.73;;;;;;;;;;5096742;28;20205;-71
2023/01/31 14:12:36;;;;;;;3.40;3.10;;;;;;;;;;5096607;28;20205;-71
2023/01/31 14:15:36;;;;;;;4.17;2.47;;;;;;;;;;5097293;28;20610;-71
2023/01/31 14:18:04;;;;;;;4.93;3.07;;;;;;;;;;5097973;28;20241;-70
2023/01/31 14:20:32;;;;;;;3.33;3.00;;;;;;;;;;5098266;28;20237;-70
2023/01/31 14:23:15;;;;;;;4.87;3.17;;;;;;;;;;5098118;28;20229;-70
2023/01/31 14:25:43;;;;;;;3.93;2.83;;;;;;;;;;5095679;28;20201;-70
2023/01/31 14:28:11;;;;;;;4.10;2.90;;;;;;;;;;5098086;28;20639;-70
2023/01/31 14:30:42;;;;;;;3.17;2.83;;;;;;;;;;5098136;28;20748;-71
2023/01/31 14:33:27;;;;;;;3.77;3.37;;;;;;;;;;5097869;28;20229;-71
2023/01/31 14:36:04;;;;;;;4.17;2.97;;;;;;;;;;5097803;28;20261;-72
2023/01/31 14:38:40;;;;;;;3.03;2.70;;;;;;;;;;5098248;28;20201;-71
2023/01/31 14:41:14;;;;;;;2.60;2.40;;;;;;;;;;5098191;28;20277;-70
2023/01/31 14:43:48;;;;;;;3.83;2.90;;;;;;;;;;5097826;28;20231;-71
2023/01/31 14:46:22;;;;;;;3.50;2.60;;;;;;;;;;5098036;28;20204;-71
2023/01/31 14:49:01;;;;;;;3.07;2.47;;;;;;;;;;5097849;28;20247;-70
2023/01/31 14:51:39;;;;;;;3.53;2.37;;;;;;;;;;5097136;28;20210;-71
2023/01/31 14:54:28;;;;;;;3.10;2.57;;;;;;;;;;5097937;28;20264;-70
2023/01/31 14:57:09;;;;;;;3.00;2.40;;;;;;;;;;5091668;28;20316;-71
2023/01/31 14:59:41;;;;;;;2.83;2.50;;;;;;;;;;5097560;28;20205;-70
2023/01/31 15:02:25;;;;;;;6.87;2.03;;;;;;;;;;5097773;28;20635;-70
2023/01/31 15:04:57;;;;;;;2.80;2.53;;;;;;;;;;5097266;28;20210;-71
2023/01/31 15:07:25;;;;;;;5.13;2.73;;;;;;;;;;5097852;28;20201;-71
2023/01/31 15:09:54;;;;;;;3.77;2.67;;;;;;;;;;5097599;28;20658;-71
2023/01/31 15:12:36;;;;;;;3.40;2.50;;;;;;;;;;5097741;28;20205;-71